Race at The Ranch 1 Mile 2015

Age Group Results

March 28, 2015


Split Second Productions

1 Mile

Female 1 to 4

Place Name City Bib No Age Overall Time Back Chip Time Gun Time Chip Diff Pace
1 Audra Bailey 2825 2 69   9:40.00 10:00.00 0:19.77 9:40/M
2 Avery Jones San Antonio TX 2875 4 89 1:25.00 11:05.00 11:16.00 0:11.17 11:05/M
3 Catherine Journagan 2604 4 94 1:59.00 11:39.00 11:50.00 0:11.14 11:39/M
 

Female 5 to 6

Place Name City Bib No Age Overall Time Back Chip Time Gun Time Chip Diff Pace
1 Vanessa Garcia 2610 6 11   7:15.00 7:17.00 0:01.70 7:15/M
2 Aoife Journagan 2607 6 22 0:26.00 7:41.00 7:45.00 0:03.25 7:41/M
3 Madison Hosier San Antonio TX 2866 6 24 0:29.00 7:44.00 7:47.00 0:03.22 7:44/M
4 Avery Kingdon San Antonio TX 2793 6 27 0:38.00 7:53.00 8:02.00 0:08.84 7:53/M
5 Paige McCormick San Antonio TX 2841 5 54 1:42.00 8:57.00 9:02.00 0:05.01 8:57/M
6 Alivia Ledford 2853 6 62 2:04.00 9:19.00 9:22.00 0:03.44 9:19/M
7 Harper Bailey 2828 6 68 2:25.00 9:40.00 9:59.00 0:18.59 9:40/M
8 Madelyn Ivy 2751 6 78 2:31.00 9:46.00 10:02.00 0:15.66 9:46/M
9 Danielle Ruff 2843 6 80 2:35.00 9:50.00 9:53.00 0:02.71 9:50/M
10 Lyla Winkler 2734 5 83 2:46.00 10:01.00 10:04.00 0:02.74 10:01/M
11 Sofia Ramirez San Antonio TX 2757 5 87 3:30.00 10:45.00 10:48.00 0:02.99 10:45/M
12 Belen De La Garza 2662 5 93 4:09.00 11:24.00 11:50.00 0:26.78 11:24/M
13 Isabel Weise 2796 6 108 5:38.00 12:53.00 12:55.00 0:02.02 12:53/M
 

Female 7 to 8

Place Name City Bib No Age Overall Time Back Chip Time Gun Time Chip Diff Pace
1 Sydney Nickleberry San Antonio TX 2842 7 12   7:17.00 7:20.00 0:03.01 7:17/M
2 Emma Jones San Antonio TX 2873 8 13 0:01.00 7:18.00 7:22.00 0:03.64 7:18/M
3 Cadence Phillips 2640 8 19 0:19.00 7:36.00 7:40.00 0:04.07 7:36/M
4 Chloe Segura 2673 8 20 0:20.00 7:37.00 7:39.00 0:02.14 7:37/M
5 Ella Winkler 2733 7 31 0:45.00 8:02.00 8:04.00 0:02.28 8:02/M
6 Madison Phillips 2643 8 32 0:45.00 8:02.00 8:06.00 0:04.35 8:02/M
7 Aubrey King 2613 7 35 0:47.00 8:04.00 8:06.00 0:01.97 8:04/M
8 Kennedi Diamond 2864 7 39 0:52.00 8:09.00 8:14.00 0:05.04 8:09/M
9 Isabelle McCleary San Antonio TX 2730 7 41 1:02.00 8:19.00 8:21.00 0:02.37 8:19/M
10 Taylor Phillips 2641 8 46 1:20.00 8:37.00 8:40.00 0:03.12 8:37/M
11 Kate Massie 2769 7 48 1:23.00 8:40.00 8:42.00 0:01.96 8:40/M
12 Alexis Miller 2637 8 50 1:26.00 8:43.00 8:46.00 0:03.08 8:43/M
13 Viviana Rodriguez San Antonio TX 2608 7 56 1:41.00 8:58.00 9:01.00 0:02.68 8:58/M
14 Caroline Penrod 2790 7 57 1:44.00 9:01.00 9:07.00 0:06.08 9:01/M
15 Peyton Fry 2776 7 58 1:45.00 9:02.00 9:08.00 0:05.69 9:02/M
16 Sierra Welilay San Antonio TX 2886 8 79 2:31.00 9:48.00 9:50.00 0:02.00 9:48/M
17 Kate McCormick San Antonio TX 2840 7 84 2:53.00 10:10.00 10:15.00 0:05.24 10:10/M
 

Female 9 to 10

Place Name City Bib No Age Overall Time Back Chip Time Gun Time Chip Diff Pace
1 Maura Journagan 2605 9 2   6:01.00 6:05.00 0:03.92 6:01/M
2 Abygail Vlasi San Antonio TX 2798 9 8 1:05.00 7:06.00 7:07.00 0:01.68 7:06/M
3 Leanne Lemasters San Antonio TX 2865 9 16 1:29.00 7:30.00 7:33.00 0:03.81 7:30/M
4 Kaylee Keppler 2787 9 17 1:31.00 7:32.00 7:36.00 0:03.54 7:32/M
5 Saylor Fuller 2766 9 21 1:36.00 7:37.00 7:41.00 0:03.96 7:37/M
 

Female 11 to 12

Place Name City Bib No Age Overall Time Back Chip Time Gun Time Chip Diff Pace
1 Samantha Welilay San Antonio TX 2887 12 4   6:29.00 6:42.00 0:13.17 6:29/M
2 Kaitlyn Massey 2756 12 59 2:38.00 9:07.00 9:12.00 0:05.90 9:07/M
 

Female 13 and over

Place Name City Bib No Age Overall Time Back Chip Time Gun Time Chip Diff Pace
1 Gracia Garcia 2614 37 10   7:10.00 7:17.00 0:07.56 7:10/M
2 Angeles Garcia 2612 35 26 0:40.00 7:50.00 7:58.00 0:07.46 7:50/M
3 Laura King San Antonio TX 2593 41 33 0:53.00 8:03.00 8:03.00 8:03/M
4 Tana Phillips 2642 40 34 0:53.00 8:03.00 8:08.00 0:04.73 8:03/M
5 Emery Forbes San Antonio TX 2619 30 36 0:55.00 8:05.00 8:08.00 0:02.27 8:05/M
6 Laura Pinzon 2633 40 43 1:13.00 8:23.00 8:30.00 0:07.08 8:23/M
7 Maria Gonzalez San Antonio TX 2862 46 45 1:23.00 8:33.00 8:38.00 0:05.11 8:33/M
8 Melissa Figueroa 2618 34 47 1:28.00 8:38.00 8:47.00 0:09.08 8:38/M
9 Esmerada Vasquez 2654 34 60 2:06.00 9:16.00 9:16.00 9:16/M
10 Ginger Bailey San Antonio TX 2826 36 71 2:31.00 9:41.00 9:59.00 0:18.87 9:41/M
11 Bertha De La Garza 2660 37 74 2:34.00 9:44.00 10:12.00 0:28.29 9:44/M
12 Lana Ivy San Antonio TX 2749 33 75 2:35.00 9:45.00 10:01.00 0:15.90 9:45/M
13 Shelly Schilling San Antonio TX 2885 39 77 2:36.00 9:46.00 9:59.00 0:12.87 9:46/M
14 Virginia Kraemer San Antonio TX 2758 35 81 2:40.00 9:50.00 10:00.00 0:10.59 9:50/M
15 Lucy Cunninghaw 2800 46 82 2:42.00 9:52.00 10:47.00 0:54.85 9:52/M
16 Jill McCormick San Antonio TX 2839 38 85 3:02.00 10:12.00 10:18.00 0:06.08 10:12/M
17 Canales Dennise 2783 34 88 3:55.00 11:05.00 11:10.00 0:05.52 11:05/M
18 Nikki Jones San Antonio TX 2874 38 91 3:55.00 11:05.00 11:17.00 0:11.43 11:05/M
19 Kelly Keppler San Antonio TX 2786 42 97 4:38.00 11:48.00 11:59.00 0:10.43 11:48/M
20 Daniele Joseph San Antonio TX 2753 60 98 4:42.00 11:52.00 12:09.00 0:16.74 11:52/M
21 Lilly Anjos 2748 14 104 5:21.00 12:31.00 12:46.00 0:14.88 12:31/M
22 Blanca Canales 2784 61 106 5:31.00 12:41.00 12:48.00 0:06.59 12:41/M
23 Jessica Simpson 2747 37 107 5:37.00 12:47.00 12:47.00 12:47/M
24 Jan Gruza 2738 58 109 6:17.00 13:27.00 13:35.00 0:08.00 13:27/M
25 Jenny Winkler San Antonio TX 2731 36 110 6:18.00 13:28.00 13:35.00 0:07.22 13:28/M
 

Male 1 to 4

Place Name City Bib No Age Overall Time Back Chip Time Gun Time Chip Diff Pace
1 Mason Ledford 2854 4 52   8:50.00 8:54.00 0:03.98 8:50/M
2 Chase Kraemer 2759 4 67 0:46.00 9:36.00 9:46.00 0:09.92 9:36/M
3 Ronan Journagan 2606 4 95 2:57.00 11:47.00 11:59.00 0:11.85 11:47/M
4 Joshu Pinzon 2635 3 101 3:28.00 12:18.00 12:25.00 0:06.75 12:18/M
5 Charlie Ivy 2752 2 113 7:58.00 16:48.00 17:05.00 0:17.07 16:48/M
 

Male 5 to 6

Place Name City Bib No Age Overall Time Back Chip Time Gun Time Chip Diff Pace
1 Jude Figueroa 2785 6 7   6:56.00 7:05.00 0:08.29 6:56/M
2 Rylan Villareal 2768 6 15 0:26.00 7:22.00 7:26.00 0:04.47 7:22/M
3 Joaquin Gonzalez 2863 6 23 0:46.00 7:42.00 7:47.00 0:04.65 7:42/M
4 Kai Purtell 2616 6 25 0:54.00 7:50.00 7:53.00 0:02.50 7:50/M
5 Ryder McGinnis 2601 5 29 1:00.00 7:56.00 8:02.00 0:06.10 7:56/M
6 Oliver Massey 2754 5 37 1:09.00 8:05.00 8:10.00 0:05.02 8:05/M
7 Miguel Canales 2781 6 55 2:02.00 8:58.00 9:00.00 0:02.74 8:58/M
8 Lukas Kraemer 2760 6 64 2:37.00 9:33.00 9:43.00 0:10.29 9:33/M
9 Sebastian Segura 2674 5 66 2:40.00 9:36.00 9:36.00 9:36/M
10 Camden Stewart 2743 6 72 2:47.00 9:43.00 9:52.00 0:08.79 9:43/M
11 Luhan Resendiz 2652 6 86 3:48.00 10:44.00 10:48.00 0:03.64 10:44/M
12 Carter Chau 2852 5 102 5:25.00 12:21.00 12:23.00 0:02.01 12:21/M
13 Elroy Miller 2636 5 111 6:40.00 13:36.00 13:41.00 0:04.85 13:36/M
 

Male 7 to 8

Place Name City Bib No Age Overall Time Back Chip Time Gun Time Chip Diff Pace
1 Collin Christensen 2638 8 3   6:14.00 6:17.00 0:03.57 6:14/M
2 Jaden Montgomery San Antonio TX 2881 8 5 0:26.00 6:40.00 6:42.00 0:02.11 6:40/M
3 Owen Massey 2755 8 14 1:05.00 7:19.00 7:22.00 0:02.71 7:19/M
4 Aden Villareal 2767 8 30 1:44.00 7:58.00 8:02.00 0:03.57 7:58/M
5 Gabriel Pinzon 2634 7 38 1:53.00 8:07.00 8:15.00 0:07.61 8:07/M
6 Alex Kingdon San Antonio TX 2792 7 40 2:01.00 8:15.00 8:17.00 0:01.47 8:15/M
7 Donovan Hart San Antonio TX 2880 7 49 2:26.00 8:40.00 8:44.00 0:04.53 8:40/M
8 Cardin Chau 2851 8 61 3:02.00 9:16.00 9:18.00 0:01.82 9:16/M
9 Evan Wilson 2890 8 63 3:08.00 9:22.00 9:40.00 0:18.61 9:22/M
10 Aron De La Garza 2661 8 73 3:30.00 9:44.00 10:10.00 0:26.76 9:44/M
11 Gavin Trout 2746 7 103 6:14.00 12:28.00 12:43.00 0:15.03 12:28/M
12 Jason Vance 2858 8 112 7:22.00 13:36.00 13:42.00 0:05.72 13:36/M
 

Male 9 to 10

Place Name City Bib No Age Overall Time Back Chip Time Gun Time Chip Diff Pace
1 Justin Cantu San Antonio TX 2629 10 1   5:53.00 5:56.00 0:03.33 5:53/M
2 Matthew Cravens 2617 10 6 1:03.00 6:56.00 6:58.00 0:02.37 6:56/M
3 Wesley Jackson 2847 9 44 2:36.00 8:29.00 8:32.00 0:03.05 8:29/M
4 Andrew Barge Bulverde TX 2797 9 99 6:12.00 12:05.00 12:08.00 0:03.05 12:05/M
5 Calvin Chau 2850 9 100 6:25.00 12:18.00 12:20.00 0:01.84 12:18/M
 

Male 11 to 12

Place Name City Bib No Age Overall Time Back Chip Time Gun Time Chip Diff Pace
1 Aaron Vance 2856 11 18   7:32.00 7:40.00 0:07.87 7:32/M
2 Davis Vasquez 2655 11 28 0:24.00 7:56.00 7:56.00 7:56/M
3 Kaeden Keppler 2788 12 42 0:47.00 8:19.00 8:22.00 0:03.68 8:19/M
4 Trevor Vance 2857 11 51 1:15.00 8:47.00 8:54.00 0:06.79 8:47/M
5 Justin Easterling San Antonio TX 2878 11 76 2:14.00 9:46.00 9:49.00 0:03.42 9:46/M
 

Male 13 and over

Place Name City Bib No Age Overall Time Back Chip Time Gun Time Chip Diff Pace
1 Sebastian Forbes San Antonio TX 2621 30 9   7:10.00 7:13.00 0:02.84 7:10/M
2 Jamale Hart San Antonio TX 2879 43 53 1:41.00 8:51.00 8:55.00 0:04.45 8:51/M
3 Mitchell Kraemer 2761 46 65 2:24.00 9:34.00 9:47.00 0:12.94 9:34/M
4 Greg Bailey 2827 41 70 2:30.00 9:40.00 10:01.00 0:20.91 9:40/M
5 Brad Jones San Antonio TX 2872 43 90 3:55.00 11:05.00 11:17.00 0:11.74 11:05/M
6 Adolfo Canales 2782 35 92 3:56.00 11:06.00 11:10.00 0:04.63 11:06/M
7 Keith Keppler 2789 42 96 4:38.00 11:48.00 11:59.00 0:10.56 11:48/M
8 Steven Trout San Antonio TX 2745 34 105 5:22.00 12:32.00 12:48.00 0:15.30 12:32/M
9 Clint Ivy 2750 33 114 9:39.00 16:49.00 17:06.00 0:16.93 16:49/M